createdAt,value
2023-02-21T00:00:06.079Z,7.5
2023-02-21T00:03:06.223Z,7.5
2023-02-21T00:06:06.126Z,7.5
2023-02-21T00:09:06.061Z,7.5
2023-02-21T00:12:06.061Z,7.4
2023-02-21T00:15:06.072Z,7.4
2023-02-21T00:21:06.060Z,7.4
2023-02-21T00:24:06.068Z,7.4
2023-02-21T00:27:06.057Z,7.4
2023-02-21T00:30:06.170Z,7.3
2023-02-21T00:33:07.165Z,7.3
2023-02-21T00:36:06.067Z,7.3
2023-02-21T00:42:06.071Z,7.3
2023-02-21T00:45:06.056Z,7.3
2023-02-21T00:48:06.057Z,7.3
2023-02-21T00:51:06.070Z,7.2
2023-02-21T00:54:06.064Z,7.2
2023-02-21T00:57:06.055Z,7.2
2023-02-21T01:00:06.083Z,7.2
2023-02-21T01:03:06.049Z,7.2
2023-02-21T01:06:06.087Z,7.2
2023-02-21T01:09:06.085Z,7.2
2023-02-21T01:12:06.062Z,7.2
2023-02-21T01:15:06.063Z,7.2
2023-02-21T01:18:06.056Z,7.2
2023-02-21T01:21:06.073Z,7.1
2023-02-21T01:24:06.063Z,7.1
2023-02-21T01:27:06.064Z,7.1
2023-02-21T01:30:06.080Z,7.1
2023-02-21T01:33:06.067Z,7.1
2023-02-21T01:36:06.058Z,7.1
2023-02-21T01:39:06.076Z,7.1
2023-02-21T01:42:06.057Z,7.1
2023-02-21T01:45:06.086Z,7.1
2023-02-21T01:48:06.064Z,7.1
2023-02-21T01:51:06.070Z,7.2
2023-02-21T01:54:06.058Z,7.2
2023-02-21T01:57:06.083Z,7.2
2023-02-21T02:00:06.079Z,7.2
2023-02-21T02:06:06.071Z,7.2
2023-02-21T02:09:06.072Z,7.1
2023-02-21T02:12:06.071Z,7.1
2023-02-21T02:15:06.065Z,7.1
2023-02-21T02:18:06.074Z,7.1
2023-02-21T02:21:06.073Z,7.1
2023-02-21T02:24:06.111Z,7.1
2023-02-21T02:27:06.078Z,7.1
2023-02-21T02:30:06.174Z,7.1
2023-02-21T02:33:06.069Z,7.1
2023-02-21T02:36:06.101Z,7.1
2023-02-21T02:39:06.081Z,7.1
2023-02-21T02:42:06.105Z,7.1
2023-02-21T02:45:06.102Z,7
2023-02-21T02:51:06.154Z,7
2023-02-21T02:54:06.089Z,7
2023-02-21T02:57:06.099Z,7
2023-02-21T03:00:06.111Z,7
2023-02-21T03:03:06.088Z,6.9
2023-02-21T03:06:06.089Z,7
2023-02-21T03:09:06.084Z,7
2023-02-21T03:12:06.094Z,7
2023-02-21T03:15:06.088Z,7
2023-02-21T03:18:06.092Z,7
2023-02-21T03:21:06.091Z,7
2023-02-21T03:24:06.104Z,7.1
2023-02-21T03:27:06.105Z,7.1
2023-02-21T03:30:06.149Z,7.1
2023-02-21T03:33:06.082Z,7.2
2023-02-21T03:36:06.102Z,7.2
2023-02-21T03:39:06.089Z,7.2
2023-02-21T03:42:06.101Z,7.2
2023-02-21T03:45:06.121Z,7.2
2023-02-21T03:51:06.104Z,7.3
2023-02-21T03:57:06.104Z,7.3
2023-02-21T04:00:06.117Z,7.3
2023-02-21T04:03:06.112Z,7.3
2023-02-21T04:06:06.113Z,7.3
2023-02-21T04:09:06.120Z,7.3
2023-02-21T04:15:06.105Z,7.3
2023-02-21T04:21:06.116Z,7.4
2023-02-21T04:24:06.113Z,7.4
2023-02-21T04:27:06.101Z,7.4
2023-02-21T04:30:06.173Z,7.4
2023-02-21T04:33:06.123Z,7.4
2023-02-21T04:36:06.118Z,7.4
2023-02-21T04:39:06.114Z,7.4
2023-02-21T04:42:06.111Z,7.4
2023-02-21T04:45:06.116Z,7.3
2023-02-21T04:48:06.123Z,7.3
2023-02-21T04:51:14.937Z,7.3
2023-02-21T04:54:06.117Z,7.3
2023-02-21T04:57:06.123Z,7.2
2023-02-21T05:00:06.133Z,7.2
2023-02-21T05:03:06.122Z,7.2
2023-02-21T05:06:06.122Z,7.1
2023-02-21T05:09:06.125Z,7.1
2023-02-21T05:12:06.124Z,7.1
2023-02-21T05:15:06.123Z,7
2023-02-21T05:18:06.124Z,7
2023-02-21T05:21:06.122Z,6.9
2023-02-21T05:24:06.119Z,6.9
2023-02-21T05:27:06.120Z,6.9
2023-02-21T05:30:06.162Z,6.8
2023-02-21T05:33:06.122Z,6.8
2023-02-21T05:36:06.127Z,6.8
2023-02-21T05:39:06.221Z,6.8
2023-02-21T05:42:06.146Z,6.7
2023-02-21T05:45:06.131Z,6.7
2023-02-21T05:48:06.137Z,6.7
2023-02-21T05:51:06.142Z,6.7
2023-02-21T05:54:06.167Z,6.7
2023-02-21T05:57:06.153Z,6.6
2023-02-21T06:00:06.217Z,6.6
2023-02-21T06:03:06.176Z,6.6
2023-02-21T06:06:06.181Z,6.6
2023-02-21T06:09:06.145Z,6.6
2023-02-21T06:12:06.162Z,6.6
2023-02-21T06:15:06.143Z,6.6
2023-02-21T06:18:06.146Z,6.6
2023-02-21T06:21:06.165Z,6.7
2023-02-21T06:24:06.157Z,6.7
2023-02-21T06:27:06.151Z,6.7
2023-02-21T06:30:06.215Z,6.7
2023-02-21T06:33:06.158Z,6.8
2023-02-21T06:36:06.170Z,6.8
2023-02-21T06:39:06.159Z,6.8
2023-02-21T06:42:06.182Z,6.8
2023-02-21T06:45:06.168Z,6.8
2023-02-21T06:48:06.159Z,6.8
2023-02-21T06:51:06.171Z,6.8
2023-02-21T06:54:06.157Z,6.9
2023-02-21T06:57:06.185Z,6.9
2023-02-21T07:00:06.178Z,6.9
2023-02-21T07:03:06.158Z,6.9
2023-02-21T07:06:06.168Z,6.9
2023-02-21T07:09:06.172Z,6.9
2023-02-21T07:12:06.194Z,6.9
2023-02-21T07:15:06.165Z,6.9
2023-02-21T07:18:06.183Z,6.9
2023-02-21T07:21:06.171Z,7
2023-02-21T07:24:06.154Z,7
2023-02-21T07:27:06.154Z,7
2023-02-21T07:30:06.210Z,7
2023-02-21T07:33:06.204Z,7
2023-02-21T07:36:06.165Z,7
2023-02-21T07:39:06.159Z,7.1
2023-02-21T07:42:06.160Z,7.1
2023-02-21T07:45:06.164Z,7.1
2023-02-21T07:48:06.166Z,7.1
2023-02-21T07:51:06.198Z,7.2
2023-02-21T07:54:06.159Z,7.2
2023-02-21T07:57:06.176Z,7.2
2023-02-21T08:00:06.164Z,7.2
2023-02-21T08:03:06.164Z,7.2
2023-02-21T08:06:06.189Z,7.2
2023-02-21T08:09:06.166Z,7.2
2023-02-21T08:12:06.170Z,7.3
2023-02-21T08:15:06.163Z,7.3
2023-02-21T08:18:06.161Z,7.3
2023-02-21T08:21:06.170Z,7.3
2023-02-21T08:24:06.159Z,7.2
2023-02-21T08:27:06.174Z,7.3
2023-02-21T08:30:06.214Z,7.3
2023-02-21T08:33:06.174Z,7.3
2023-02-21T08:36:06.187Z,7.3
2023-02-21T08:39:06.179Z,7.3
2023-02-21T08:42:06.175Z,7.4
2023-02-21T08:45:06.183Z,7.4
2023-02-21T08:48:06.177Z,7.4
2023-02-21T08:51:06.221Z,7.5
2023-02-21T08:54:06.180Z,7.5
2023-02-21T08:57:06.179Z,7.6
2023-02-21T09:00:06.211Z,7.6
2023-02-21T09:03:06.182Z,7.6
2023-02-21T09:06:06.197Z,7.7
2023-02-21T09:09:06.186Z,7.7
2023-02-21T09:12:06.230Z,7.8
2023-02-21T09:15:06.184Z,7.8
2023-02-21T09:18:06.192Z,7.9
2023-02-21T09:21:06.202Z,8
2023-02-21T09:24:06.191Z,8
2023-02-21T09:27:06.206Z,8.1
2023-02-21T09:30:06.284Z,8.1
2023-02-21T09:33:06.203Z,8.2
2023-02-21T09:36:06.204Z,8.3
2023-02-21T09:39:06.212Z,8.3
2023-02-21T09:42:06.212Z,8.4
2023-02-21T09:45:06.212Z,8.4
2023-02-21T09:48:06.235Z,8.5
2023-02-21T09:51:06.253Z,8.5
2023-02-21T09:54:06.247Z,8.6
2023-02-21T09:57:06.234Z,8.6
2023-02-21T10:00:06.231Z,8.7
2023-02-21T10:03:06.241Z,8.7
2023-02-21T10:06:06.239Z,8.7
2023-02-21T10:09:06.274Z,8.7
2023-02-21T10:12:06.251Z,8.8
2023-02-21T10:15:06.278Z,8.9
2023-02-21T10:18:06.283Z,9
2023-02-21T10:21:06.276Z,9
2023-02-21T10:24:06.279Z,9
2023-02-21T10:27:06.319Z,9.1
2023-02-21T10:30:06.370Z,9.2
2023-02-21T10:33:06.308Z,9.2
2023-02-21T10:36:06.371Z,9.3
2023-02-21T10:39:06.325Z,9.4
2023-02-21T10:42:06.351Z,9.5
2023-02-21T10:45:06.343Z,9.5
2023-02-21T10:48:06.340Z,9.6
2023-02-21T10:51:06.363Z,9.6
2023-02-21T10:54:06.379Z,9.8
2023-02-21T10:57:06.387Z,9.8
2023-02-21T11:00:06.378Z,9.9
2023-02-21T11:03:06.389Z,9.9
2023-02-21T11:06:06.390Z,10
2023-02-21T11:12:06.392Z,10.2
2023-02-21T11:15:06.398Z,10.2
2023-02-21T11:18:06.405Z,10.2
2023-02-21T11:21:06.405Z,10.3
2023-02-21T11:24:06.732Z,10.3
2023-02-21T11:27:06.592Z,10.5
2023-02-21T11:30:06.622Z,10.5
2023-02-21T11:33:06.585Z,10.6
2023-02-21T11:36:06.598Z,10.7
2023-02-21T11:39:06.594Z,10.7
2023-02-21T11:42:06.604Z,10.8
2023-02-21T11:45:06.609Z,10.9
2023-02-21T11:48:06.603Z,10.9
2023-02-21T11:51:06.618Z,10.9
2023-02-21T11:54:06.601Z,11
2023-02-21T11:57:06.600Z,11
2023-02-21T12:00:06.613Z,11
2023-02-21T12:03:06.614Z,11.1
2023-02-21T12:09:06.603Z,11.2
2023-02-21T12:12:06.674Z,11.2
2023-02-21T12:15:06.632Z,11.3
2023-02-21T12:18:06.626Z,11.3
2023-02-21T12:24:06.634Z,11.4
2023-02-21T12:27:06.632Z,11.5
2023-02-21T12:30:06.738Z,11.8
2023-02-21T12:33:06.643Z,12
2023-02-21T12:36:06.626Z,12.3
2023-02-21T12:39:06.640Z,12.6
2023-02-21T12:42:06.641Z,12.9
2023-02-21T12:45:06.637Z,13
2023-02-21T12:48:06.643Z,13.1
2023-02-21T12:51:06.631Z,13.1
2023-02-21T12:54:06.635Z,13.1
2023-02-21T12:57:06.653Z,13.1
2023-02-21T13:00:06.709Z,13
2023-02-21T13:03:06.660Z,12.9
2023-02-21T13:06:06.660Z,12.8
2023-02-21T13:09:06.662Z,12.8
2023-02-21T13:12:06.693Z,12.8
2023-02-21T13:15:06.646Z,12.7
2023-02-21T13:18:06.643Z,12.7
2023-02-21T13:21:06.664Z,12.7
2023-02-21T13:24:06.673Z,12.6
2023-02-21T13:27:06.667Z,12.6
2023-02-21T13:30:06.715Z,12.6
2023-02-21T13:33:06.671Z,12.6
2023-02-21T13:36:06.681Z,12.7
2023-02-21T13:39:06.690Z,12.7
2023-02-21T13:42:06.692Z,12.7
2023-02-21T13:45:06.703Z,12.7
2023-02-21T13:48:06.693Z,12.7
2023-02-21T13:51:06.699Z,12.7
2023-02-21T13:54:06.705Z,12.7
2023-02-21T13:57:06.722Z,12.7
2023-02-21T14:00:06.757Z,12.7
2023-02-21T14:03:06.703Z,12.7
2023-02-21T14:06:06.705Z,12.7
2023-02-21T14:09:06.720Z,12.7
2023-02-21T14:12:06.712Z,12.7
2023-02-21T14:15:06.751Z,12.7
2023-02-21T14:18:06.719Z,12.7
2023-02-21T14:21:06.721Z,12.8
2023-02-21T14:24:06.743Z,12.7
2023-02-21T14:27:06.787Z,12.7
2023-02-21T14:30:06.834Z,12.7
2023-02-21T14:33:06.742Z,12.7
2023-02-21T14:36:06.741Z,12.7
2023-02-21T14:42:06.748Z,12.7
2023-02-21T14:45:06.760Z,12.7
2023-02-21T14:48:06.780Z,12.9
2023-02-21T14:51:06.772Z,13
2023-02-21T14:54:06.767Z,13.2
2023-02-21T14:57:06.779Z,13.2
2023-02-21T15:00:06.817Z,13.2
2023-02-21T15:03:06.792Z,13.1
2023-02-21T15:06:06.789Z,13.1
2023-02-21T15:09:06.789Z,13
2023-02-21T15:12:06.799Z,13
2023-02-21T15:15:06.790Z,12.9
2023-02-21T15:18:06.801Z,12.9
2023-02-21T15:21:06.802Z,12.8
2023-02-21T15:24:06.807Z,12.7
2023-02-21T15:27:06.809Z,12.7
2023-02-21T15:30:06.853Z,12.6
2023-02-21T15:33:06.816Z,12.6
2023-02-21T15:36:06.819Z,12.6
2023-02-21T15:39:06.829Z,12.5
2023-02-21T15:42:06.822Z,12.5
2023-02-21T15:45:06.830Z,12.5
2023-02-21T15:48:06.828Z,12.4
2023-02-21T15:51:06.831Z,12.4
2023-02-21T15:54:06.831Z,12.4
2023-02-21T15:57:08.584Z,12.3
2023-02-21T16:00:06.908Z,12.3
2023-02-21T16:03:06.843Z,12.2
2023-02-21T16:06:06.833Z,12.2
2023-02-21T16:09:06.846Z,12.2
2023-02-21T16:12:06.909Z,12.1
2023-02-21T16:15:06.848Z,12.1
2023-02-21T16:18:06.852Z,12
2023-02-21T16:21:06.839Z,12
2023-02-21T16:24:06.852Z,11.9
2023-02-21T16:27:06.848Z,11.9
2023-02-21T16:30:06.919Z,11.8
2023-02-21T16:33:06.908Z,11.8
2023-02-21T16:36:06.849Z,11.7
2023-02-21T16:39:06.846Z,11.7
2023-02-21T16:42:06.929Z,11.6
2023-02-21T16:45:06.865Z,11.6
2023-02-21T16:48:06.878Z,11.5
2023-02-21T16:51:06.894Z,11.4
2023-02-21T16:54:06.878Z,11.4
2023-02-21T16:57:06.955Z,11.3
2023-02-21T17:00:06.894Z,11.2
2023-02-21T17:03:06.882Z,11.2
2023-02-21T17:06:06.891Z,11.1
2023-02-21T17:09:06.885Z,11.1
2023-02-21T17:15:06.895Z,10.9
2023-02-21T17:18:06.903Z,10.9
2023-02-21T17:21:06.915Z,10.8
2023-02-21T17:24:06.927Z,10.8
2023-02-21T17:27:06.904Z,10.7
2023-02-21T17:30:06.969Z,10.7
2023-02-21T17:33:06.889Z,10.6
2023-02-21T17:36:06.892Z,10.6
2023-02-21T17:39:06.906Z,10.5
2023-02-21T17:42:06.902Z,10.5
2023-02-21T17:45:06.935Z,10.4
2023-02-21T17:48:06.895Z,10.4
2023-02-21T17:51:06.896Z,10.3
2023-02-21T17:54:06.902Z,10.3
2023-02-21T18:00:06.917Z,10.2
2023-02-21T18:03:06.942Z,10.2
2023-02-21T18:06:06.909Z,10.1
2023-02-21T18:09:06.908Z,10.1
2023-02-21T18:12:06.924Z,10
2023-02-21T18:15:06.926Z,10
2023-02-21T18:18:08.126Z,10
2023-02-21T18:21:06.910Z,9.9
2023-02-21T18:24:06.924Z,9.9
2023-02-21T18:27:06.934Z,9.8
2023-02-21T18:30:07.002Z,9.8
2023-02-21T18:33:06.916Z,9.7
2023-02-21T18:36:06.926Z,9.7
2023-02-21T18:39:06.920Z,9.7
2023-02-21T18:42:06.922Z,9.6
2023-02-21T18:45:06.933Z,9.6
2023-02-21T18:48:06.933Z,9.6
2023-02-21T18:51:06.925Z,9.5
2023-02-21T18:54:06.943Z,9.5
2023-02-21T18:57:06.940Z,9.4
2023-02-21T19:00:06.949Z,9.4
2023-02-21T19:03:06.970Z,9.4
2023-02-21T19:06:06.952Z,9.3
2023-02-21T19:09:06.949Z,9.3
2023-02-21T19:12:06.955Z,9.3
2023-02-21T19:15:06.952Z,9.2
2023-02-21T19:18:06.960Z,9.2
2023-02-21T19:21:06.954Z,9.1
2023-02-21T19:24:07.161Z,9.1
2023-02-21T19:27:07.236Z,9
2023-02-21T19:30:06.991Z,9
2023-02-21T19:33:06.984Z,9
2023-02-21T19:36:06.966Z,9
2023-02-21T19:39:06.963Z,9
2023-02-21T19:42:06.987Z,9
2023-02-21T19:45:07.003Z,8.9
2023-02-21T19:48:06.993Z,8.9
2023-02-21T19:54:07.011Z,8.9
2023-02-21T19:57:06.989Z,8.8
2023-02-21T20:00:07.000Z,8.8
2023-02-21T20:03:07.001Z,8.8
2023-02-21T20:06:07.008Z,8.7
2023-02-21T20:09:07.017Z,8.7
2023-02-21T20:12:07.016Z,8.7
2023-02-21T20:15:07.024Z,8.7
2023-02-21T20:18:07.021Z,8.6
2023-02-21T20:21:07.037Z,8.6
2023-02-21T20:24:07.028Z,8.6
2023-02-21T20:27:07.048Z,8.6
2023-02-21T20:30:07.070Z,8.6
2023-02-21T20:33:07.054Z,8.5
2023-02-21T20:39:07.050Z,8.5
2023-02-21T20:42:07.065Z,8.5
2023-02-21T20:45:07.074Z,8.4
2023-02-21T20:48:07.083Z,8.4
2023-02-21T20:51:07.067Z,8.4
2023-02-21T20:54:07.075Z,8.4
2023-02-21T20:57:07.079Z,8.4
2023-02-21T21:00:07.099Z,8.3
2023-02-21T21:03:07.089Z,8.3
2023-02-21T21:06:07.083Z,8.3
2023-02-21T21:09:07.087Z,8.3
2023-02-21T21:12:07.107Z,8.2
2023-02-21T21:15:07.096Z,8.2
2023-02-21T21:18:07.101Z,8.2
2023-02-21T21:21:07.097Z,8.2
2023-02-21T21:24:07.218Z,8.2
2023-02-21T21:27:08.949Z,8.2
2023-02-21T21:30:07.145Z,8.2
2023-02-21T21:33:07.124Z,8.2
2023-02-21T21:36:07.105Z,8.2
2023-02-21T21:39:07.101Z,8.2
2023-02-21T21:42:07.105Z,8.2
2023-02-21T21:48:07.101Z,8.2
2023-02-21T21:51:07.093Z,8.2
2023-02-21T21:54:07.095Z,8.1
2023-02-21T21:57:07.093Z,8.1
2023-02-21T22:00:07.095Z,8.1
2023-02-21T22:03:07.306Z,8.1
2023-02-21T22:06:07.096Z,8.1
2023-02-21T22:09:07.098Z,8
2023-02-21T22:12:07.114Z,8
2023-02-21T22:15:07.105Z,8
2023-02-21T22:18:07.095Z,8
2023-02-21T22:21:07.106Z,7.9
2023-02-21T22:24:07.101Z,7.9
2023-02-21T22:27:07.098Z,7.9
2023-02-21T22:30:07.228Z,7.9
2023-02-21T22:33:07.101Z,7.9
2023-02-21T22:36:07.093Z,7.9
2023-02-21T22:39:07.091Z,7.8
2023-02-21T22:42:07.112Z,7.8
2023-02-21T22:45:07.114Z,7.8
2023-02-21T22:48:07.098Z,7.8
2023-02-21T22:51:07.119Z,7.8
2023-02-21T22:54:07.103Z,7.7
2023-02-21T22:57:07.108Z,7.7
2023-02-21T23:00:07.109Z,7.7
2023-02-21T23:03:07.108Z,7.7
2023-02-21T23:06:07.119Z,7.6
2023-02-21T23:09:07.114Z,7.6
2023-02-21T23:12:07.116Z,7.6
2023-02-21T23:15:07.113Z,7.6
2023-02-21T23:18:07.132Z,7.6
2023-02-21T23:21:07.134Z,7.6
2023-02-21T23:24:07.117Z,7.5
2023-02-21T23:27:07.120Z,7.5
2023-02-21T23:30:07.171Z,7.5
2023-02-21T23:33:07.129Z,7.5
2023-02-21T23:36:07.126Z,7.5
2023-02-21T23:39:07.136Z,7.5
2023-02-21T23:42:07.150Z,7.4
2023-02-21T23:45:07.143Z,7.4
2023-02-21T23:48:07.146Z,7.4
2023-02-21T23:51:07.150Z,7.3
2023-02-21T23:54:07.303Z,7.3
2023-02-21T23:57:07.144Z,7.3
